Terminal Aerodrome Forecast
Issued by NWS

Current Version | Previous Version | Graphics & Text | Print | Product List | Glossary On
Versions: 1 2 3 4 5 6 7 8 9 10 11 12 13 14 15 16 17 18 19 20 21 22 23 24 25 26 27 28 29 30 31 32 33 34 35 36 37 38 39 40 41 42 43 44 45 46 47 48 49 50
000
FTUS41 KRNK 191010 AAA
TAFLWB
TAF AMD
KLWB 191010Z 1910/2006 00000KT P6SM SCT009 OVC015
      TEMPO 1910/1912 OVC025
     FM191500 29005KT P6SM BKN030
     FM191700 29008KT P6SM SCT080
     FM192300 VRB03KT P6SM FEW030=

USA.gov is the U.S. government's official web portal to all federal, state and local government web resources and services.